Time;durP1;ratioP1;P1;durP2;ratioP2;P2;SDS_P1;SDS_P2;PMS_P1;PMS_P2;Temp;Humidity;BMP_temperature;BMP_pressure;BME280_temperature;BME280_humidity;BME280_pressure;Samples;Min_cycle;Max_cycle;Signal;HPM_P1;HPM_P2
2022/05/21 00:01:53;;;;;;;2.38;2.15;;;;;;;7.66;76.77;97676.50;6129439;23;20017;-77
2022/05/21 00:04:19;;;;;;;1.95;1.83;;;;;;;7.80;76.09;97676.06;6081224;23;20014;-77
2022/05/21 00:06:45;;;;;;;2.13;1.90;;;;;;;7.83;75.72;97670.44;6129538;23;20072;-76
2022/05/21 00:09:11;;;;;;;2.92;1.85;;;;;;;7.81;75.29;97668.91;6129518;23;20032;-76
2022/05/21 00:11:38;;;;;;;2.85;1.75;;;;;;;7.76;74.84;97672.00;6129459;23;20356;-77
2022/05/21 00:14:05;;;;;;;2.00;1.90;;;;;;;7.74;74.91;97673.97;6129795;23;20056;-76
2022/05/21 00:16:31;;;;;;;2.72;2.53;;;;;;;7.60;75.19;97656.69;6130101;23;20103;-76
2022/05/21 00:18:57;;;;;;;1.75;1.65;;;;;;;7.69;74.88;97660.28;6105644;23;20045;-76
2022/05/21 00:21:23;;;;;;;1.92;1.83;;;;;;;7.54;75.24;97671.38;6107031;23;20108;-76
2022/05/21 00:23:50;;;;;;;2.15;1.70;;;;;;;7.44;75.90;97667.91;6107132;23;20017;-76
2022/05/21 00:26:16;;;;;;;1.95;1.85;;;;;;;7.46;76.52;97663.28;6082990;23;20018;-77
2022/05/21 00:28:45;;;;;;;2.00;1.90;;;;;;;7.51;76.13;97657.53;6131310;23;20085;-76
2022/05/21 00:31:14;;;;;;;5.60;2.80;;;;;;;7.50;76.08;97648.72;6106913;23;20021;-77
2022/05/21 00:33:41;;;;;;;2.70;1.90;;;;;;;7.53;76.27;97647.59;6131669;23;20045;-76
2022/05/21 00:36:08;;;;;;;3.58;2.00;;;;;;;7.46;76.09;97650.00;6083040;23;20021;-76
2022/05/21 00:38:37;;;;;;;4.82;2.00;;;;;;;7.45;76.41;97652.81;6156111;23;20025;-77
2022/05/21 00:41:05;;;;;;;1.80;1.70;;;;;;;7.51;76.19;97631.78;6131369;23;20040;-77
2022/05/21 00:43:45;;;;;;;2.15;1.95;;;;;;;7.54;75.81;97643.94;6107614;23;20040;-76
2022/05/21 00:46:19;;;;;;;1.90;1.80;;;;;;;7.42;76.24;97631.81;6158163;23;20021;-77
2022/05/21 00:48:53;;;;;;;2.22;2.03;;;;;;;7.47;76.15;97646.34;6107356;23;20040;-76
2022/05/21 00:51:24;;;;;;;2.72;2.15;;;;;;;7.44;75.90;97628.03;6130896;23;20017;-76
2022/05/21 00:53:52;;;;;;;3.13;2.03;;;;;;;7.45;75.87;97631.53;6130995;23;20021;-77
2022/05/21 00:56:20;;;;;;;2.38;2.17;;;;;;;7.48;75.92;97641.88;6106588;23;20024;-77
2022/05/21 01:01:37;;;;;;;1.73;1.63;;;;;;;7.41;76.33;97633.66;6131539;23;20361;-76
2022/05/21 01:04:03;;;;;;;2.00;1.90;;;;;;;7.34;76.36;97629.88;6131633;23;20480;-77
2022/05/21 01:06:29;;;;;;;1.80;1.70;;;;;;;7.38;76.37;97625.97;6131085;23;20396;-76
2022/05/21 01:08:55;;;;;;;2.00;1.80;;;;;;;7.38;76.30;97625.97;6155794;23;20025;-76
2022/05/21 01:11:21;;;;;;;1.88;1.77;;;;;;;7.42;76.25;97630.00;6157083;23;20088;-77
2022/05/21 01:13:50;;;;;;;2.30;2.10;;;;;;;7.54;76.26;97623.50;6130736;23;20472;-77
2022/05/21 01:16:16;;;;;;;2.60;2.20;;;;;;;7.75;75.98;97611.81;6130815;23;20072;-76
2022/05/21 01:18:42;;;;;;;4.72;2.10;;;;;;;7.81;75.73;97613.88;6130770;23;20021;-78
2022/05/21 01:21:09;;;;;;;2.88;2.28;;;;;;;7.85;75.37;97606.44;6156771;23;20025;-77
2022/05/21 01:23:35;;;;;;;2.20;2.00;;;;;;;7.95;75.08;97607.22;6105860;23;20018;-77
2022/05/21 01:26:04;;;;;;;2.53;2.33;;;;;;;7.97;74.96;97608.78;6130462;23;20025;-77
2022/05/21 01:28:32;;;;;;;2.78;2.50;;;;;;;7.97;74.77;97606.09;6106225;23;20017;-76
2022/05/21 01:31:01;;;;;;;2.72;2.22;;;;;;;7.92;74.89;97597.72;6130868;23;20021;-76
2022/05/21 01:33:30;;;;;;;4.22;2.30;;;;;;;8.04;74.78;97604.50;6106765;23;20055;-77
2022/05/21 01:35:57;;;;;;;;;;;;;;;7.83;74.47;97603.94;6131103;23;20021;-77
2022/05/21 01:38:24;;;;;;;2.47;2.28;;;;;;;7.69;74.75;97602.59;6156332;23;19944;-77
2022/05/21 01:40:51;;;;;;;2.67;2.47;;;;;;;7.64;75.22;97609.34;6105917;23;20029;-77
2022/05/21 01:46:02;;;;;;;4.50;2.80;;;;;;;7.66;75.60;97607.38;6157025;23;20028;-77
2022/05/21 01:48:30;;;;;;;3.90;2.90;;;;;;;7.64;75.79;97601.38;6130354;23;20018;-77
2022/05/21 01:50:56;;;;;;;4.15;2.65;;;;;;;7.57;75.92;97595.81;6130229;23;20100;-77
2022/05/21 01:53:24;;;;;;;3.38;3.08;;;;;;;7.69;75.54;97597.28;6156246;23;20103;-77
2022/05/21 01:55:51;;;;;;;3.33;2.70;;;;;;;7.68;75.44;97595.63;6130105;23;20022;-78
2022/05/21 01:58:18;;;;;;;3.30;2.97;;;;;;;7.76;75.67;97592.22;6130551;23;20080;-77
2022/05/21 02:00:45;;;;;;;3.85;3.30;;;;;;;7.87;75.59;97605.31;6155203;23;20017;-76
2022/05/21 02:03:13;;;;;;;5.35;2.88;;;;;;;7.82;74.69;97596.09;6105852;23;20083;-77
2022/05/21 02:05:39;;;;;;;2.90;2.70;;;;;;;7.87;74.54;97600.00;6130190;23;20025;-76
2022/05/21 02:08:06;;;;;;;3.30;2.97;;;;;;;7.81;74.60;97586.44;6105793;23;20022;-78
2022/05/21 02:10:33;;;;;;;2.58;2.38;;;;;;;7.95;74.24;97585.94;6130402;23;20024;-76
2022/05/21 02:13:02;;;;;;;3.75;2.83;;;;;;;7.96;74.39;97592.94;6105974;23;20024;-77
2022/05/21 02:15:29;;;;;;;4.15;2.67;;;;;;;7.92;74.47;97591.56;6130334;23;20053;-78
2022/05/21 02:17:55;;;;;;;2.78;2.47;;;;;;;7.88;74.73;97601.66;6130439;23;20032;-77
2022/05/21 02:20:20;;;;;;;4.38;2.80;;;;;;;7.94;74.62;97584.28;6105742;23;20055;-77
2022/05/21 02:22:46;;;;;;;4.57;2.65;;;;;;;7.89;74.43;97587.38;6130067;23;20021;-77
2022/05/21 02:25:16;;;;;;;4.60;2.92;;;;;;;7.92;74.48;97595.06;6106438;23;20013;-78
2022/05/21 02:27:43;;;;;;;5.60;2.80;;;;;;;7.71;75.12;97597.13;6130142;23;20024;-78
2022/05/21 02:30:10;;;;;;;3.50;2.10;;;;;;;7.70;74.87;97608.75;6130177;23;20021;-77
2022/05/21 02:32:36;;;;;;;2.55;2.35;;;;;;;7.68;75.09;97600.09;6156622;23;20025;-79
2022/05/21 02:35:02;;;;;;;2.72;2.50;;;;;;;7.77;76.20;97605.34;6131966;23;20021;-89
2022/05/21 02:40:13;;;;;;;2.42;2.22;;;;;;;7.91;74.12;97604.03;6130708;23;20028;-79
2022/05/21 02:42:48;;;;;;;2.80;2.58;;;;;;;7.75;74.16;97599.38;6131796;23;20022;-79
2022/05/21 02:45:21;;;;;;;3.53;2.60;;;;;;;7.57;74.70;97603.78;6157090;23;20053;-78
2022/05/21 02:47:48;;;;;;;2.20;2.10;;;;;;;7.51;75.02;97604.34;6130024;23;20017;-81
2022/05/21 02:50:17;;;;;;;2.47;2.28;;;;;;;7.36;75.16;97605.81;6129966;23;20368;-81
2022/05/21 02:52:44;;;;;;;3.63;2.70;;;;;;;7.32;75.62;97615.06;6130194;23;20026;-79
2022/05/21 02:55:11;;;;;;;2.88;2.40;;;;;;;7.28;76.22;97594.09;6156123;23;20088;-81
2022/05/21 02:57:37;;;;;;;3.22;2.80;;;;;;;7.71;78.52;97611.28;6146119;23;20120;-88
2022/05/21 03:00:09;;;;;;;2.53;2.33;;;;;;;8.04;78.42;97606.31;6084231;23;20087;-81
2022/05/21 03:02:35;;;;;;;2.38;2.10;;;;;;;8.09;75.92;97592.59;6082164;23;20021;-79
2022/05/21 03:05:03;;;;;;;2.65;2.17;;;;;;;7.91;74.25;97598.72;6129552;23;20031;-79
2022/05/21 03:07:31;;;;;;;2.42;2.20;;;;;;;7.74;74.35;97599.50;6129656;23;20017;-78
2022/05/21 03:12:41;;;;;;;2.25;2.15;;;;;;;7.53;74.94;97602.41;6104379;23;20017;-79
2022/05/21 03:15:07;;;;;;;2.42;2.28;;;;;;;7.52;75.28;97606.88;6105072;23;20405;-79
2022/05/21 03:17:34;;;;;;;2.42;2.22;;;;;;;7.53;75.53;97603.22;6105009;23;20025;-82
2022/05/21 03:20:00;;;;;;;3.92;2.65;;;;;;;7.68;76.27;97610.75;6130216;23;20021;-82
2022/05/21 03:22:26;;;;;;;4.47;2.42;;;;;;;7.63;75.92;97589.03;6129648;23;20335;-75
2022/05/21 03:24:52;;;;;;;3.25;2.42;;;;;;;7.80;75.79;97601.56;6104805;23;20172;-77
2022/05/21 03:27:18;;;;;;;3.45;2.60;;;;;;;7.85;75.41;97617.09;6103998;23;20449;-79
2022/05/21 03:29:44;;;;;;;2.75;2.55;;;;;;;7.90;75.44;97605.03;6129245;23;20045;-76
2022/05/21 03:32:10;;;;;;;2.97;2.60;;;;;;;7.76;74.82;97597.53;6105219;23;20561;-75
2022/05/21 03:34:36;;;;;;;2.15;2.05;;;;;;;7.73;75.44;97608.47;6129389;23;20076;-78
2022/05/21 03:37:03;;;;;;;4.47;2.50;;;;;;;7.80;75.60;97609.56;6104678;23;20041;-77
2022/05/21 03:39:29;;;;;;;2.50;2.30;;;;;;;7.92;75.04;97608.34;6104671;23;20020;-81
2022/05/21 03:41:55;;;;;;;3.13;2.67;;;;;;;8.18;76.33;97613.81;6107100;23;20103;-80
2022/05/21 03:44:21;;;;;;;2.05;1.85;;;;;;;8.40;74.92;97611.75;6105688;23;20029;-79
2022/05/21 03:46:47;;;;;;;2.85;2.17;;;;;;;8.40;73.69;97607.25;6154512;23;20021;-76
2022/05/21 03:49:13;;;;;;;2.70;2.13;;;;;;;8.29;73.00;97599.44;6129458;23;20072;-78
2022/05/21 03:51:39;;;;;;;2.90;2.40;;;;;;;8.26;73.17;97602.41;6080594;23;20025;-79
2022/05/21 03:54:05;;;;;;;2.58;2.38;;;;;;;8.21;73.41;97607.34;6104706;23;20021;-79
2022/05/21 03:56:31;;;;;;;3.20;2.58;;;;;;;8.34;73.49;97604.31;6155125;23;20099;-80
2022/05/21 03:58:57;;;;;;;2.40;2.20;;;;;;;8.25;72.81;97598.91;6128997;23;20043;-78
2022/05/21 04:01:22;;;;;;;2.42;2.22;;;;;;;8.31;73.10;97602.78;6129392;23;20044;-78
2022/05/21 04:03:50;;;;;;;2.78;2.10;;;;;;;8.23;72.81;97595.56;6131178;23;20029;-80
2022/05/21 04:06:17;;;;;;;4.80;2.25;;;;;;;7.95;73.50;97613.38;6130081;23;20432;-79
2022/05/21 04:08:42;;;;;;;2.95;2.50;;;;;;;8.00;74.41;97605.78;6106092;23;20022;-78
2022/05/21 04:11:08;;;;;;;3.00;2.70;;;;;;;8.15;74.90;97607.94;6130570;23;20094;-78
2022/05/21 04:13:34;;;;;;;2.33;2.13;;;;;;;8.27;75.50;97598.75;6132163;23;20364;-81
2022/05/21 04:16:00;;;;;;;2.83;1.90;;;;;;;8.66;75.00;97609.16;6113558;23;20331;-91
2022/05/21 04:18:26;;;;;;;2.50;2.00;;;;;;;8.48;72.22;97596.66;6106440;23;20021;-79
2022/05/21 04:20:52;;;;;;;4.57;2.53;;;;;;;8.27;73.04;97601.41;6155814;23;20024;-78
2022/05/21 04:23:18;;;;;;;4.25;3.50;;;;;;;8.26;73.19;97602.41;6129474;23;20337;-77
2022/05/21 04:25:43;;;;;;;2.00;1.90;;;;;;;8.10;73.60;97604.91;6104953;23;20096;-77
2022/05/21 04:28:09;;;;;;;2.15;2.05;;;;;;;8.03;74.22;97609.97;6105321;23;20018;-77
2022/05/21 04:30:35;;;;;;;2.58;2.28;;;;;;;8.01;74.59;97602.16;6129521;23;20025;-78
2022/05/21 04:33:01;;;;;;;1.77;1.67;;;;;;;7.88;73.79;97609.66;6105512;23;20025;-76
2022/05/21 04:38:13;;;;;;;2.70;2.50;;;;;;;7.87;74.32;97589.34;6104872;23;20354;-76
2022/05/21 04:40:39;;;;;;;3.90;2.20;;;;;;;7.93;73.96;97593.22;6155153;23;20013;-77
2022/05/21 04:43:05;;;;;;;2.70;2.50;;;;;;;7.93;73.89;97599.38;6128447;23;20510;-76
2022/05/21 04:45:31;;;;;;;4.93;2.38;;;;;;;8.07;73.88;97615.84;6103874;23;20104;-77
2022/05/21 04:47:56;;;;;;;2.20;2.00;;;;;;;8.20;74.05;97589.72;6103764;23;20426;-79
2022/05/21 04:50:22;;;;;;;6.93;2.20;;;;;;;8.16;73.94;97604.28;6104192;23;20024;-77
2022/05/21 04:52:48;;;;;;;3.35;2.50;;;;;;;8.28;74.39;97603.09;6127440;23;20353;-77
2022/05/21 04:55:14;;;;;;;2.65;2.17;;;;;;;8.48;73.83;97602.00;6079458;23;20033;-77
2022/05/21 04:57:40;;;;;;;4.10;2.58;;;;;;;8.48;73.74;97591.34;6103464;23;20021;-76
2022/05/21 05:00:07;;;;;;;3.03;2.30;;;;;;;8.46;73.27;97606.66;6152421;23;20036;-79
2022/05/21 05:02:33;;;;;;;2.88;2.30;;;;;;;8.43;73.54;97604.28;6154025;23;20026;-78
2022/05/21 05:04:59;;;;;;;2.65;2.45;;;;;;;8.69;73.21;97608.84;6104341;23;20045;-77
2022/05/21 05:07:25;;;;;;;3.25;2.65;;;;;;;9.06;72.41;97597.13;6130022;23;20048;-77
2022/05/21 05:09:51;;;;;;;2.03;1.90;;;;;;;8.98;71.12;97596.06;6131050;23;20076;-75
2022/05/21 05:12:19;;;;;;;1.92;1.83;;;;;;;9.18;70.74;97617.22;6107985;23;20017;-77
2022/05/21 05:14:45;;;;;;;1.83;1.73;;;;;;;9.08;69.90;97595.16;6131426;23;20021;-77
2022/05/21 05:17:13;;;;;;;2.47;2.20;;;;;;;9.08;70.32;97593.31;6107363;23;20043;-77
2022/05/21 05:19:40;;;;;;;3.63;2.00;;;;;;;9.15;70.71;97586.38;6106279;23;20472;-76
2022/05/21 05:22:10;;;;;;;8.80;1.88;;;;;;;9.28;70.14;97593.09;6130372;23;20056;-78
2022/05/21 05:24:39;;;;;;;2.05;1.70;;;;;;;9.19;70.07;97600.22;6130035;23;20029;-77
2022/05/21 05:27:06;;;;;;;1.95;1.75;;;;;;;9.40;70.84;97595.38;6105148;23;20041;-76
2022/05/21 05:29:32;;;;;;;1.88;1.77;;;;;;;9.33;69.01;97589.00;6105244;23;20029;-76
2022/05/21 05:31:58;;;;;;;2.00;1.90;;;;;;;9.24;69.34;97580.09;6130750;23;20353;-76
2022/05/21 05:34:24;;;;;;;2.72;1.77;;;;;;;9.21;69.42;97591.09;6155516;23;20017;-76
2022/05/21 05:36:51;;;;;;;1.90;1.73;;;;;;;9.38;69.21;97596.50;6105137;23;20028;-76
2022/05/21 05:39:18;;;;;;;2.05;1.88;;;;;;;9.90;70.10;97591.09;6130635;23;20488;-76
2022/05/21 05:41:44;;;;;;;2.20;2.00;;;;;;;10.46;69.39;97594.94;6105809;23;20028;-77
2022/05/21 05:44:10;;;;;;;4.18;1.85;;;;;;;10.40;65.21;97598.25;6130356;23;20021;-78
2022/05/21 05:46:36;;;;;;;2.25;1.90;;;;;;;10.78;66.78;97596.78;6105288;23;20434;-77
2022/05/21 05:49:03;;;;;;;1.83;1.73;;;;;;;11.08;65.72;97602.47;6155842;23;20063;-78
2022/05/21 05:51:29;;;;;;;2.05;1.80;;;;;;;11.13;64.24;97594.75;6130822;23;20029;-77
2022/05/21 05:53:55;;;;;;;1.70;1.58;;;;;;;11.29;63.35;97596.59;6081027;23;20025;-77
2022/05/21 05:56:22;;;;;;;2.35;1.80;;;;;;;11.37;62.89;97597.41;6105638;23;20052;-78
2022/05/21 06:01:34;;;;;;;1.83;1.73;;;;;;;11.37;63.46;97597.41;6104906;23;20021;-77
2022/05/21 06:04:00;;;;;;;1.60;1.50;;;;;;;11.64;62.89;97587.31;6105361;23;20017;-77
2022/05/21 06:06:28;;;;;;;2.08;1.30;;;;;;;11.66;62.03;97591.50;6129203;23;20021;-76
2022/05/21 06:08:54;;;;;;;1.45;1.35;;;;;;;11.40;60.89;97589.06;6154918;23;20096;-76
2022/05/21 06:11:20;;;;;;;1.50;1.40;;;;;;;11.29;61.02;97578.72;6128900;23;20052;-77
2022/05/21 06:13:46;;;;;;;2.25;1.50;;;;;;;11.25;62.81;97592.59;6129036;23;20473;-77
2022/05/21 06:16:14;;;;;;;1.60;1.50;;;;;;;11.33;61.72;97585.38;6129102;23;20025;-76
2022/05/21 06:18:39;;;;;;;3.35;1.50;;;;;;;11.37;62.29;97589.38;6129665;23;20088;-75
2022/05/21 06:21:06;;;;;;;1.33;1.23;;;;;;;11.56;60.96;97587.34;6130823;23;20453;-77
2022/05/21 06:23:33;;;;;;;1.50;1.40;;;;;;;11.86;62.41;97586.59;6105925;23;20029;-77
2022/05/21 06:26:00;;;;;;;2.92;1.40;;;;;;;11.95;60.15;97589.22;6105224;23;20014;-77
2022/05/21 06:28:29;;;;;;;1.60;1.50;;;;;;;11.64;58.81;97581.94;6106889;23;20021;-77
2022/05/21 06:30:56;;;;;;;1.42;1.42;;;;;;;11.59;60.37;97589.66;6105453;23;20458;-76
2022/05/21 06:33:25;;;;;;;1.70;1.60;;;;;;;11.77;60.70;97576.91;6130245;23;20025;-78
2022/05/21 06:36:08;;;;;;;1.27;1.27;;;;;;;11.87;59.55;97588.25;6130731;23;20022;-78
2022/05/21 06:38:35;;;;;;;1.88;1.58;;;;;;;12.04;58.98;97572.13;6130146;23;20045;-79
2022/05/21 06:41:02;;;;;;;1.50;1.50;;;;;;;11.94;58.24;97584.88;6105852;23;20022;-91
2022/05/21 06:43:28;;;;;;;2.50;1.30;;;;;;;11.70;58.01;97570.56;6130313;23;20465;-77
2022/05/21 06:45:54;;;;;;;1.50;1.40;;;;;;;12.01;60.26;97570.63;6130288;23;20022;-77
2022/05/21 06:48:20;;;;;;;1.02;1.02;;;;;;;12.46;59.90;97562.81;6130241;23;20022;-83
2022/05/21 06:50:47;;;;;;;1.70;1.55;;;;;;;12.24;57.05;97557.25;6130173;23;20397;-79
2022/05/21 06:53:12;;;;;;;1.20;1.20;;;;;;;12.69;60.48;97570.84;6105961;23;20021;-80
2022/05/21 06:55:39;;;;;;;1.42;1.33;;;;;;;12.83;55.61;97562.88;6155745;23;20022;-79
2022/05/21 06:58:06;;;;;;;1.02;1.00;;;;;;;12.87;55.41;97563.34;6131105;23;20021;-79
2022/05/21 07:00:32;;;;;;;1.30;1.30;;;;;;;12.74;55.22;97563.94;6130221;23;20022;-78
2022/05/21 07:02:58;;;;;;;1.35;1.20;;;;;;;12.78;54.56;97549.16;6129895;23;20017;-78
2022/05/21 07:08:22;;;;;;;1.60;1.50;;;;;;;12.73;55.30;97562.28;6105600;23;20341;-77
2022/05/21 07:10:48;;;;;;;1.42;1.33;;;;;;;12.76;55.19;97561.91;6130428;23;20021;-77
2022/05/21 07:13:16;;;;;;;1.40;1.30;;;;;;;12.76;54.16;97558.41;6105175;23;20021;-80
2022/05/21 07:15:43;;;;;;;1.30;1.30;;;;;;;12.59;55.47;97561.19;6130386;23;20025;-78
2022/05/21 07:18:09;;;;;;;2.10;1.33;;;;;;;12.69;55.02;97560.97;6105524;23;20018;-79
2022/05/21 07:20:35;;;;;;;1.63;1.52;;;;;;;12.34;55.67;97562.41;6105128;23;20025;-78
2022/05/21 07:23:01;;;;;;;1.67;1.35;;;;;;;12.32;56.08;97564.41;6105803;23;20331;-78
2022/05/21 07:25:31;;;;;;;1.30;1.20;;;;;;;12.69;56.89;97558.28;6104778;23;20032;-78
2022/05/21 07:28:00;;;;;;;1.27;1.17;;;;;;;12.75;54.67;97554.91;6129120;23;20572;-78
2022/05/21 07:30:26;;;;;;;1.10;1.08;;;;;;;12.54;55.08;97560.09;6154782;23;20028;-78
2022/05/21 07:32:55;;;;;;;1.73;1.30;;;;;;;12.39;55.45;97560.00;6129595;23;20027;-78
2022/05/21 07:35:22;;;;;;;1.00;1.00;;;;;;;12.34;55.75;97568.59;6129565;23;20021;-77
2022/05/21 07:37:48;;;;;;;1.05;1.02;;;;;;;12.38;55.64;97564.53;6105457;23;20021;-78
2022/05/21 07:40:18;;;;;;;1.50;1.40;;;;;;;12.68;55.05;97551.25;6131621;23;20357;-78
2022/05/21 07:42:45;;;;;;;1.23;1.20;;;;;;;12.91;54.37;97547.72;6155459;23;20041;-78
2022/05/21 07:45:15;;;;;;;1.20;1.10;;;;;;;12.99;54.23;97556.53;6129077;23;20080;-77
2022/05/21 07:47:41;;;;;;;1.73;0.77;;;;;;;12.55;53.46;97570.59;6081183;23;20471;-77
2022/05/21 07:50:08;;;;;;;1.40;1.30;;;;;;;12.30;54.82;97572.63;6129622;23;20028;-76
2022/05/21 07:52:34;;;;;;;1.92;1.25;;;;;;;12.51;55.39;97557.75;6105774;23;20492;-76
2022/05/21 07:55:00;;;;;;;1.45;1.25;;;;;;;12.86;54.36;97575.91;6129566;23;20043;-76
2022/05/21 07:57:26;;;;;;;2.45;1.30;;;;;;;13.26;54.44;97565.00;6153561;23;20409;-77
2022/05/21 07:59:52;;;;;;;1.40;1.30;;;;;;;13.33;54.29;97558.72;6105948;23;20048;-78
2022/05/21 08:02:19;;;;;;;1.05;1.05;;;;;;;13.40;52.28;97550.78;6105484;23;20135;-77
2022/05/21 08:04:47;;;;;;;1.00;1.00;;;;;;;13.40;52.66;97563.38;6153939;23;20022;-76
2022/05/21 08:07:14;;;;;;;1.67;0.85;;;;;;;13.37;51.90;97572.63;6105007;23;20027;-76
2022/05/21 08:09:41;;;;;;;2.35;1.00;;;;;;;13.50;51.67;97569.28;6130564;23;20025;-77
2022/05/21 08:12:08;;;;;;;1.77;1.30;;;;;;;13.89;50.78;97584.28;6129868;23;20021;-76
2022/05/21 08:14:34;;;;;;;4.00;1.20;;;;;;;14.01;49.75;97566.66;6105309;23;20021;-77
2022/05/21 08:17:01;;;;;;;1.10;1.00;;;;;;;13.80;49.87;97562.91;6156555;23;20018;-76
2022/05/21 08:19:27;;;;;;;3.47;1.10;;;;;;;13.77;50.24;97565.97;6131066;23;20031;-76
2022/05/21 08:21:53;;;;;;;1.17;1.08;;;;;;;13.81;51.32;97569.94;6105716;23;20358;-76
2022/05/21 08:27:04;;;;;;;1.30;1.20;;;;;;;13.22;51.75;97561.84;6104529;23;20021;-75
2022/05/21 08:29:34;;;;;;;6.43;1.10;;;;;;;13.20;52.16;97560.34;6155100;23;20029;-76
2022/05/21 08:32:03;;;;;;;1.02;1.02;;;;;;;13.20;51.71;97568.38;6130516;23;20025;-76
2022/05/21 08:34:30;;;;;;;1.40;1.20;;;;;;;13.40;51.10;97563.38;6105368;23;20021;-77
2022/05/21 08:36:57;;;;;;;3.05;1.10;;;;;;;13.58;49.83;97561.16;6153677;23;20295;-76
2022/05/21 08:39:23;;;;;;;2.20;1.10;;;;;;;13.49;50.11;97560.41;6104428;23;20026;-76
2022/05/21 08:41:56;;;;;;;1.17;1.10;;;;;;;13.01;50.76;97565.25;6132891;23;20029;-77
2022/05/21 08:44:43;;;;;;;1.77;1.60;;;;;;;12.72;52.50;97555.25;6132107;23;20021;-77
2022/05/21 08:47:34;;;;;;;1.00;1.00;;;;;;;13.55;52.15;97545.41;6135609;23;20056;-77
2022/05/21 08:50:13;;;;;;;0.95;0.95;;;;;;;13.93;50.54;97538.06;6107943;23;20024;-77
2022/05/21 08:52:44;;;;;;;0.88;0.80;;;;;;;14.43;50.01;97554.31;6156858;23;20021;-77
2022/05/21 08:55:16;;;;;;;1.02;1.02;;;;;;;14.03;50.16;97559.28;6132308;23;20029;-77
2022/05/21 08:57:56;;;;;;;4.72;1.45;;;;;;;13.72;51.82;97560.28;6134747;23;20035;-77
2022/05/21 09:00:26;;;;;;;1.30;1.20;;;;;;;13.64;51.15;97555.03;6131764;23;20030;-79
2022/05/21 09:02:54;;;;;;;1.17;1.17;;;;;;;13.66;51.91;97555.69;6130478;23;20548;-78
2022/05/21 09:05:22;;;;;;;1.08;0.98;;;;;;;14.08;50.95;97556.84;6130539;23;20104;-78
2022/05/21 09:08:11;;;;;;;1.48;1.38;;;;;;;14.51;51.53;97562.28;6130697;23;20017;-78
2022/05/21 09:10:58;;;;;;;1.40;1.00;;;;;;;14.41;49.20;97542.94;6130674;23;20112;-79
2022/05/21 09:13:46;;;;;;;1.10;1.08;;;;;;;13.60;52.82;97556.41;6106067;23;20080;-77
2022/05/21 09:19:05;;;;;;;1.10;1.00;;;;;;;13.34;54.36;97562.25;6130395;23;20028;-77
2022/05/21 09:21:36;;;;;;;1.05;1.05;;;;;;;13.66;52.98;97558.38;6082137;23;20022;-78
2022/05/21 09:24:04;;;;;;;1.77;1.10;;;;;;;13.93;50.45;97540.75;6105826;23;20018;-76
2022/05/21 09:26:48;;;;;;;1.10;1.10;;;;;;;14.11;47.56;97544.91;6130497;23;20124;-77
2022/05/21 09:29:35;;;;;;;1.00;1.00;;;;;;;14.61;48.09;97541.31;6130813;23;20531;-77
2022/05/21 09:32:32;;;;;;;3.40;0.90;;;;;;;15.16;45.72;97534.31;6082115;23;20021;-76
2022/05/21 09:35:11;;;;;;;2.92;0.90;;;;;;;15.18;46.18;97526.03;6106052;23;20327;-77
2022/05/21 09:37:38;;;;;;;1.52;1.00;;;;;;;14.95;46.80;97547.81;6106150;23;20335;-78
2022/05/21 09:40:25;;;;;;;0.95;0.95;;;;;;;14.60;46.68;97550.41;6130160;23;20076;-78
2022/05/21 09:45:38;;;;;;;0.82;0.82;;;;;;;14.13;47.65;97551.72;6130226;23;20104;-80
2022/05/21 09:48:04;;;;;;;2.00;1.45;;;;;;;14.73;47.04;97563.97;6130436;23;20097;-77
2022/05/21 09:50:40;;;;;;;8.43;1.10;;;;;;;15.29;46.47;97538.97;6130333;23;20049;-77
2022/05/21 09:53:29;;;;;;;5.45;0.80;;;;;;;16.07;42.12;97542.31;6106299;23;20017;-78
2022/05/21 09:56:03;;;;;;;0.80;0.80;;;;;;;15.81;42.22;97543.03;6130099;23;20025;-76
2022/05/21 09:58:34;;;;;;;13.63;1.33;;;;;;;15.38;43.48;97550.41;6130075;23;20020;-77
2022/05/21 10:01:00;;;;;;;7.43;1.30;;;;;;;14.99;44.05;97554.47;6156140;23;20017;-76
2022/05/21 10:04:37;;;;;;;1.88;1.23;;;;;;;14.21;43.88;97540.84;6105796;23;20031;-76
2022/05/21 10:13:06;;;;;;;2.13;1.00;;;;;;;15.45;43.15;97540.50;6130228;23;20022;-74
2022/05/21 10:15:39;;;;;;;3.42;1.10;;;;;;;16.47;41.55;97534.31;6081467;23;20021;-77
2022/05/21 10:18:32;;;;;;;5.10;1.05;;;;;;;16.58;39.54;97539.13;6081899;23;20068;-76
2022/05/21 10:21:14;;;;;;;2.33;0.90;;;;;;;15.63;41.15;97546.22;6130491;23;20024;-78
2022/05/21 10:23:47;;;;;;;1.00;0.60;;;;;;;15.26;42.25;97555.50;6129029;23;20128;-76
2022/05/21 10:26:26;;;;;;;3.40;1.00;;;;;;;14.97;43.59;97564.56;6154282;23;20508;-76
2022/05/21 10:29:31;;;;;;;1.50;1.40;;;;;;;15.09;45.41;97560.34;6105791;23;20022;-77
2022/05/21 10:32:05;;;;;;;4.00;1.67;;;;;;;15.65;45.11;97560.34;6105931;23;20390;-76
2022/05/21 10:34:48;;;;;;;3.00;1.23;;;;;;;16.72;44.14;97543.50;6105676;23;20044;-76
2022/05/21 10:37:40;;;;;;;3.58;1.45;;;;;;;18.37;40.68;97562.38;6154612;23;20044;-76
2022/05/21 10:40:21;;;;;;;2.10;1.23;;;;;;;18.12;39.56;97565.78;6043134;23;20021;-76
2022/05/21 10:43:06;;;;;;;2.63;0.90;;;;;;;16.35;42.54;97581.78;6105487;23;20365;-76
2022/05/21 10:45:43;;;;;;;1.02;1.02;;;;;;;15.66;43.02;97575.47;6129392;23;20068;-77
2022/05/21 10:48:39;;;;;;;2.10;1.17;;;;;;;15.45;43.35;97570.13;6156244;23;20112;-76
2022/05/21 10:51:54;;;;;;;1.55;1.23;;;;;;;15.76;43.26;97567.06;6104876;23;20021;-76
2022/05/21 10:54:42;;;;;;;2.00;0.85;;;;;;;16.45;42.11;97568.78;6113796;23;20018;-76
2022/05/21 10:57:32;;;;;;;1.58;1.10;;;;;;;15.28;43.41;97562.38;6105641;23;20032;-77
2022/05/21 11:00:14;;;;;;;2.13;1.40;;;;;;;14.58;45.88;97577.47;6105434;23;20480;-78
2022/05/21 11:03:25;;;;;;;2.75;1.48;;;;;;;13.80;47.55;97581.72;6130059;23;20100;-79
2022/05/21 11:06:10;;;;;;;10.05;1.42;;;;;;;13.51;50.09;97590.59;6155595;23;20076;-82
2022/05/21 11:08:58;;;;;;;4.00;1.63;;;;;;;13.34;51.24;97581.84;6157266;23;20018;-80
2022/05/21 11:11:50;;;;;;;4.18;2.30;;;;;;;13.45;51.72;97582.44;6129880;23;20017;-76
2022/05/21 11:14:35;;;;;;;2.30;2.10;;;;;;;13.93;51.33;97593.63;6105373;23;20109;-78
2022/05/21 11:17:22;;;;;;;2.80;1.95;;;;;;;14.13;49.63;97594.72;6129441;23;20400;-79
2022/05/21 11:20:17;;;;;;;2.30;2.10;;;;;;;14.20;47.83;97598.31;6104970;23;20021;-75
2022/05/21 11:22:52;;;;;;;8.15;2.20;;;;;;;14.43;46.90;97600.03;6086777;23;20017;-77
2022/05/21 11:25:28;;;;;;;3.65;2.17;;;;;;;14.49;45.19;97608.19;6129727;23;20045;-77
2022/05/21 11:28:03;;;;;;;4.30;1.95;;;;;;;14.44;44.26;97604.38;6105072;23;20463;-76
2022/05/21 11:30:29;;;;;;;3.97;2.15;;;;;;;14.25;44.50;97606.63;6105003;23;20040;-78
2022/05/21 11:38:40;;;;;;;1.60;1.38;;;;;;;14.15;46.21;97600.75;6129517;23;20025;-77
2022/05/21 11:41:29;;;;;;;2.03;1.40;;;;;;;14.55;46.42;97612.81;6130064;23;20033;-78
2022/05/21 11:44:55;;;;;;;1.30;1.23;;;;;;;16.23;42.73;97595.84;6129197;23;20022;-78
2022/05/21 11:46:45;;;;;;;5.05;1.63;;;;;;;16.98;40.83;97602.09;6155220;23;20026;-76
2022/05/21 11:49:41;;;;;;;3.72;1.50;;;;;;;16.61;40.36;97587.25;6104688;23;20331;-78
2022/05/21 11:52:50;;;;;;;2.03;1.63;;;;;;;16.19;41.49;97583.81;6129026;23;20017;-78
2022/05/21 11:55:22;;;;;;;1.90;1.80;;;;;;;16.12;41.67;97582.97;6016120;23;20105;-80
2022/05/21 11:58:01;;;;;;;1.60;1.50;;;;;;;16.15;41.59;97579.88;6119762;23;20354;-79
2022/05/21 12:00:26;;;;;;;2.38;1.50;;;;;;;15.91;41.64;97569.59;6104833;23;20022;-77
2022/05/21 12:03:02;;;;;;;2.05;1.48;;;;;;;15.95;42.18;97560.09;6129304;23;20013;-77
2022/05/21 12:05:34;;;;;;;1.48;1.40;;;;;;;16.82;40.86;97572.00;6129467;23;20359;-77
2022/05/21 12:08:23;;;;;;;1.50;1.40;;;;;;;18.97;38.84;97573.69;6153399;23;20354;-79
2022/05/21 12:11:17;;;;;;;4.47;1.60;;;;;;;20.56;35.69;97580.22;6105214;23;20013;-78
2022/05/21 12:14:09;;;;;;;2.72;1.20;;;;;;;21.54;33.08;97575.38;6105273;23;20056;-78
2022/05/21 12:16:34;;;;;;;1.98;1.70;;;;;;;21.61;32.60;97580.72;6106503;23;20108;-78
2022/05/21 12:19:03;;;;;;;1.50;1.40;;;;;;;21.92;32.39;97564.00;6157379;23;20461;-80
2022/05/21 12:21:29;;;;;;;4.82;1.50;;;;;;;22.00;32.93;97577.25;6131258;23;20021;-77
2022/05/21 12:23:56;;;;;;;4.07;1.67;;;;;;;21.94;32.64;97577.38;6155417;23;20465;-78
2022/05/21 12:26:25;;;;;;;2.53;1.65;;;;;;;22.74;32.77;97582.84;6130752;23;20032;-78
2022/05/21 12:29:15;;;;;;;2.63;1.77;;;;;;;21.72;33.05;97590.75;6082105;23;20319;-79
2022/05/21 12:31:57;;;;;;;4.10;1.73;;;;;;;20.45;34.52;97593.69;6107225;23;20361;-75
2022/05/21 12:34:35;;;;;;;3.42;1.58;;;;;;;19.09;37.24;97599.00;6131118;23;20100;-77